createdAt,value
2019-04-04T00:01:40.970Z,95569.36
2019-04-04T00:04:08.529Z,95565.81
2019-04-04T00:06:35.929Z,95568.52
2019-04-04T00:09:03.331Z,95572.61
2019-04-04T00:11:30.745Z,95569.14
2019-04-04T00:13:58.151Z,95559.45
2019-04-04T00:16:25.555Z,95537.86
2019-04-04T00:18:52.952Z,95543.12
2019-04-04T00:21:20.363Z,95548.98
2019-04-04T00:23:47.774Z,95532.43
2019-04-04T00:26:15.180Z,95532.82
2019-04-04T00:28:44.082Z,95526.43
2019-04-04T00:31:10.145Z,95514.42
2019-04-04T00:33:37.610Z,95505.17
2019-04-04T00:36:05.067Z,95500.46
2019-04-04T00:38:32.492Z,95490.98
2019-04-04T00:40:59.907Z,95483.50
2019-04-04T00:43:27.307Z,95463.67
2019-04-04T00:45:54.719Z,95451.73
2019-04-04T00:48:22.131Z,95453.45
2019-04-04T00:50:49.527Z,95442.28
2019-04-04T00:53:16.934Z,95431.91
2019-04-04T00:55:45.060Z,95428.21
2019-04-04T00:58:11.742Z,95435.36
2019-04-04T01:00:39.244Z,95429.14
2019-04-04T01:03:06.627Z,95423.59
2019-04-04T01:05:34.033Z,95417.79
2019-04-04T01:08:01.420Z,95430.14
2019-04-04T01:10:28.820Z,95428.23
2019-04-04T01:12:56.231Z,95427.64
2019-04-04T01:15:23.617Z,95419.89
2019-04-04T01:17:51.020Z,95416.16
2019-04-04T01:20:20.330Z,95417.96
2019-04-04T01:22:45.829Z,95416.39
2019-04-04T01:25:13.212Z,95420.19
2019-04-04T01:27:40.602Z,95423.05
2019-04-04T01:30:08.009Z,95421.95
2019-04-04T01:32:35.399Z,95433.20
2019-04-04T01:35:02.802Z,95429.73
2019-04-04T01:37:30.205Z,95426.33
2019-04-04T01:39:57.605Z,95416.70
2019-04-04T01:42:25.029Z,95417.03
2019-04-04T01:44:52.419Z,95413.24
2019-04-04T01:47:19.838Z,95422.22
2019-04-04T01:49:47.231Z,95418.42
2019-04-04T01:52:14.643Z,95415.62
2019-04-04T01:54:42.052Z,95419.17
2019-04-04T01:57:09.448Z,95417.93
2019-04-04T01:59:36.864Z,95404.13
2019-04-04T02:02:04.265Z,95416.28
2019-04-04T02:04:31.696Z,95410.48
2019-04-04T02:06:59.672Z,95408.35
2019-04-04T02:09:26.494Z,95409.83
2019-04-04T02:11:53.896Z,95399.22
2019-04-04T02:14:21.383Z,95393.62
2019-04-04T02:16:51.306Z,95385.97
2019-04-04T02:19:16.149Z,95386.92
2019-04-04T02:21:43.558Z,95379.48
2019-04-04T02:24:10.958Z,95377.36
2019-04-04T02:26:38.351Z,95371.86
2019-04-04T02:29:05.834Z,95383.81
2019-04-04T02:31:34.768Z,95378.52
2019-04-04T02:34:05.291Z,95380.61
2019-04-04T02:36:29.581Z,95388.25
2019-04-04T02:39:01.653Z,95386.86
2019-04-04T02:41:29.065Z,95388.30
2019-04-04T02:43:59.379Z,95386.33
2019-04-04T02:46:23.885Z,95400.53
2019-04-04T02:48:53.602Z,95392.27
2019-04-04T02:51:18.746Z,95377.05
2019-04-04T02:53:46.135Z,95375.16
2019-04-04T02:56:13.830Z,95379.39
2019-04-04T02:58:41.236Z,95369.66
2019-04-04T03:01:08.669Z,95370.23
2019-04-04T03:03:36.205Z,95378.30
2019-04-04T03:06:03.485Z,95375.52
2019-04-04T03:08:30.892Z,95368.44
2019-04-04T03:10:58.319Z,95351.32
2019-04-04T03:13:25.719Z,95361.73
2019-04-04T03:15:53.119Z,95368.86
2019-04-04T03:18:20.550Z,95365.30
2019-04-04T03:20:50.407Z,95371.03
2019-04-04T03:23:15.416Z,95376.05
2019-04-04T03:25:44.663Z,95378.81
2019-04-04T03:28:10.210Z,95374.12
2019-04-04T03:30:37.617Z,95378.52
2019-04-04T03:33:05.022Z,95377.52
2019-04-04T03:35:32.437Z,95362.30
2019-04-04T03:37:59.839Z,95361.07
2019-04-04T03:40:27.237Z,95364.18
2019-04-04T03:42:54.631Z,95366.81
2019-04-04T03:45:26.246Z,95363.08
2019-04-04T03:47:49.472Z,95357.58
2019-04-04T03:50:16.865Z,95361.52
2019-04-04T03:52:44.661Z,95348.80
2019-04-04T03:55:11.683Z,95348.19
2019-04-04T03:57:39.110Z,95351.23
2019-04-04T04:00:07.477Z,95341.73
2019-04-04T04:02:33.970Z,95332.35
2019-04-04T04:05:02.092Z,95334.84
2019-04-04T04:07:28.807Z,95333.62
2019-04-04T04:09:59.297Z,95339.41
2019-04-04T04:12:23.617Z,95337.48
2019-04-04T04:14:53.716Z,95331.06
2019-04-04T04:17:18.417Z,95328.16
2019-04-04T04:19:45.828Z,95328.16
2019-04-04T04:22:17.921Z,95333.48
2019-04-04T04:24:40.639Z,95338.69
2019-04-04T04:27:08.037Z,95331.48
2019-04-04T04:29:35.440Z,95324.42
2019-04-04T04:32:02.925Z,95325.77
2019-04-04T04:34:33.049Z,95330.36
2019-04-04T04:36:57.769Z,95319.97
2019-04-04T04:39:25.174Z,95328.77
2019-04-04T04:41:54.249Z,95331.98
2019-04-04T04:44:20.003Z,95325.86
2019-04-04T04:46:49.754Z,95326.77
2019-04-04T04:49:14.826Z,95326.69
2019-04-04T04:51:44.165Z,95321.36
2019-04-04T04:54:09.693Z,95318.86
2019-04-04T04:56:37.146Z,95311.70
2019-04-04T04:59:04.559Z,95303.73
2019-04-04T05:01:31.973Z,95301.38
2019-04-04T05:04:02.326Z,95294.73
2019-04-04T05:06:26.848Z,95303.80
2019-04-04T05:08:54.239Z,95301.85
2019-04-04T05:11:22.285Z,95304.94
2019-04-04T05:16:23.363Z,95306.73
2019-04-04T05:18:50.777Z,95313.73
2019-04-04T05:21:24.752Z,95314.36
2019-04-04T05:23:46.986Z,95317.39
2019-04-04T05:26:13.033Z,95321.15
2019-04-04T05:28:42.110Z,95324.86
2019-04-04T05:31:08.021Z,95330.35
2019-04-04T05:33:35.435Z,95334.70
2019-04-04T05:36:04.883Z,95339.30
2019-04-04T05:38:30.300Z,95345.41
2019-04-04T05:40:57.713Z,95336.45
2019-04-04T05:43:25.130Z,95334.52
2019-04-04T05:45:52.687Z,95342.33
2019-04-04T05:48:20.078Z,95334.49
2019-04-04T05:50:47.519Z,95344.03
2019-04-04T05:53:14.897Z,95344.95
2019-04-04T05:55:42.446Z,95344.86
2019-04-04T05:58:09.769Z,95354.67
2019-04-04T06:00:37.184Z,95348.19
2019-04-04T06:03:04.669Z,95340.53
2019-04-04T06:05:32.081Z,95342.91
2019-04-04T06:07:59.577Z,95343.02
2019-04-04T06:10:26.974Z,95343.97
2019-04-04T06:12:56.138Z,95341.63
2019-04-04T06:15:21.936Z,95342.08
2019-04-04T06:17:49.544Z,95345.28
2019-04-04T06:20:17.307Z,95352.70
2019-04-04T06:22:44.699Z,95348.36
2019-04-04T06:25:12.134Z,95350.23
2019-04-04T06:27:40.285Z,95354.61
2019-04-04T06:30:06.979Z,95364.89
2019-04-04T06:32:34.445Z,95365.53
2019-04-04T06:35:01.873Z,95378.02
2019-04-04T06:37:29.288Z,95380.94
2019-04-04T06:39:58.888Z,95385.76
2019-04-04T06:42:24.114Z,95389.70
2019-04-04T06:44:54.108Z,95385.20
2019-04-04T06:47:18.956Z,95374.22
2019-04-04T06:49:46.399Z,95368.65
2019-04-04T06:52:13.796Z,95370.61
2019-04-04T06:54:41.206Z,95379.12
2019-04-04T06:57:08.595Z,95383.38
2019-04-04T06:59:36.461Z,95387.81
2019-04-04T07:02:05.230Z,95394.49
2019-04-04T07:04:31.917Z,95398.14
2019-04-04T07:06:59.091Z,95405.70
2019-04-04T07:09:25.784Z,95402.08
2019-04-04T07:11:53.194Z,95397.63
2019-04-04T07:14:20.601Z,95400.69
2019-04-04T07:16:48.040Z,95405.53
2019-04-04T07:19:15.439Z,95409.80
2019-04-04T07:21:42.860Z,95406.94
2019-04-04T07:24:10.247Z,95414.11
2019-04-04T07:26:37.896Z,95417.82
2019-04-04T07:31:39.122Z,95429.77
2019-04-04T07:34:06.540Z,95429.47
2019-04-04T07:36:33.990Z,95431.62
2019-04-04T07:39:01.427Z,95433.61
2019-04-04T07:41:28.922Z,95430.08
2019-04-04T07:43:58.608Z,95432.61
2019-04-04T07:46:23.773Z,95436.97
2019-04-04T07:48:51.527Z,95437.20
2019-04-04T07:51:18.671Z,95446.78
2019-04-04T07:53:46.081Z,95445.36
2019-04-04T07:56:14.354Z,95445.86
2019-04-04T07:58:40.901Z,95446.66
2019-04-04T08:01:08.300Z,95452.38
2019-04-04T08:03:35.724Z,95452.40
2019-04-04T08:06:03.135Z,95456.25
2019-04-04T08:08:30.522Z,95460.85
2019-04-04T08:10:57.972Z,95469.69
2019-04-04T08:13:25.380Z,95464.50
2019-04-04T08:15:52.851Z,95468.00
2019-04-04T08:18:20.643Z,95470.91
2019-04-04T08:20:48.042Z,95472.17
2019-04-04T08:23:15.451Z,95491.77
2019-04-04T08:25:42.869Z,95480.23
2019-04-04T08:28:10.290Z,95488.01
2019-04-04T08:30:37.683Z,95483.81
2019-04-04T08:33:05.094Z,95483.62
2019-04-04T08:35:32.507Z,95488.15
2019-04-04T08:37:59.919Z,95482.27
2019-04-04T08:40:27.338Z,95483.23
2019-04-04T08:42:54.762Z,95483.64
2019-04-04T08:45:22.143Z,95486.83
2019-04-04T08:47:49.865Z,95491.17
2019-04-04T08:50:17.320Z,95487.45
2019-04-04T08:52:44.716Z,95485.43
2019-04-04T08:55:12.121Z,95479.98
2019-04-04T08:57:39.593Z,95491.28
2019-04-04T09:00:07.009Z,95499.83
2019-04-04T09:02:34.403Z,95503.98
2019-04-04T09:05:11.982Z,95502.80
2019-04-04T09:07:29.222Z,95512.66
2019-04-04T09:09:56.721Z,95514.69
2019-04-04T09:12:24.827Z,95509.61
2019-04-04T09:14:52.225Z,95514.27
2019-04-04T09:17:19.630Z,95515.16
2019-04-04T09:19:47.024Z,95522.69
2019-04-04T09:22:15.622Z,95522.47
2019-04-04T09:24:42.999Z,95524.58
2019-04-04T09:27:10.416Z,95525.92
2019-04-04T09:29:37.899Z,95529.53
2019-04-04T09:32:05.284Z,95534.83
2019-04-04T09:34:32.677Z,95531.97
2019-04-04T09:37:00.082Z,95533.38
2019-04-04T09:39:27.520Z,95531.94
2019-04-04T09:41:54.915Z,95536.09
2019-04-04T09:44:22.343Z,95533.77
2019-04-04T09:46:49.347Z,95543.96
2019-04-04T09:49:16.776Z,95547.77
2019-04-04T09:51:43.722Z,95544.20
2019-04-04T09:54:11.127Z,95543.21
2019-04-04T09:56:38.535Z,95550.79
2019-04-04T09:59:05.935Z,95554.88
2019-04-04T10:01:33.357Z,95568.41
2019-04-04T10:04:00.760Z,95569.98
2019-04-04T10:06:27.722Z,95573.47
2019-04-04T10:08:55.337Z,95580.53
2019-04-04T10:11:23.255Z,95588.83
2019-04-04T10:13:50.690Z,95577.68
2019-04-04T10:16:18.108Z,95583.84
2019-04-04T10:18:45.637Z,95586.16
2019-04-04T10:21:13.060Z,95590.59
2019-04-04T10:23:40.464Z,95586.55
2019-04-04T10:26:07.950Z,95586.39
2019-04-04T10:28:35.347Z,95586.34
2019-04-04T10:31:02.762Z,95591.39
2019-04-04T10:33:29.830Z,95595.52
2019-04-04T10:35:56.769Z,95601.05
2019-04-04T10:38:23.747Z,95596.95
2019-04-04T10:40:50.737Z,95592.56
2019-04-04T10:43:18.187Z,95602.30
2019-04-04T10:45:45.643Z,95613.44
2019-04-04T10:48:13.051Z,95606.37
2019-04-04T10:50:40.008Z,95615.09
2019-04-04T10:53:07.111Z,95619.11
2019-04-04T10:55:34.039Z,95617.98
2019-04-04T11:00:35.317Z,95620.67
2019-04-04T11:03:02.302Z,95620.78
2019-04-04T11:05:29.753Z,95624.68
2019-04-04T11:07:57.003Z,95629.51
2019-04-04T11:10:23.695Z,95633.87
2019-04-04T11:12:51.180Z,95633.37
2019-04-04T11:15:18.582Z,95626.92
2019-04-04T11:17:45.982Z,95634.88
2019-04-04T11:20:13.559Z,95638.48
2019-04-04T11:22:40.941Z,95639.30
2019-04-04T11:25:08.353Z,95640.91
2019-04-04T11:27:35.744Z,95648.37
2019-04-04T11:30:03.310Z,95645.00
2019-04-04T11:32:30.711Z,95653.24
2019-04-04T11:34:58.113Z,95648.91
2019-04-04T11:37:26.501Z,95650.97
2019-04-04T11:39:55.133Z,95655.60
2019-04-04T11:42:21.331Z,95646.34
2019-04-04T11:44:48.739Z,95642.99
2019-04-04T11:47:16.140Z,95643.86
2019-04-04T11:49:43.549Z,95639.45
2019-04-04T11:52:10.939Z,95638.36
2019-04-04T11:54:38.339Z,95648.45
2019-04-04T11:57:05.747Z,95640.91
2019-04-04T11:59:33.201Z,95638.82
2019-04-04T12:02:00.639Z,95637.36
2019-04-04T12:04:28.034Z,95635.13
2019-04-04T12:06:55.438Z,95633.34
2019-04-04T12:09:22.865Z,95636.09
2019-04-04T12:11:50.429Z,95640.09
2019-04-04T12:14:17.840Z,95648.46
2019-04-04T12:16:45.240Z,95644.95
2019-04-04T12:19:12.666Z,95642.22
2019-04-04T12:21:40.110Z,95648.98
2019-04-04T12:24:07.506Z,95652.89
2019-04-04T12:26:34.937Z,95648.37
2019-04-04T12:29:02.343Z,95654.19
2019-04-04T12:31:29.824Z,95655.32
2019-04-04T12:33:57.262Z,95648.47
2019-04-04T12:36:25.174Z,95655.73
2019-04-04T12:38:52.074Z,95651.91
2019-04-04T12:41:19.476Z,95645.54
2019-04-04T12:43:46.881Z,95650.67
2019-04-04T12:46:14.284Z,95653.17
2019-04-04T12:48:41.674Z,95652.65
2019-04-04T12:51:09.101Z,95655.41
2019-04-04T12:53:36.515Z,95659.77
2019-04-04T12:56:04.598Z,95659.37
2019-04-04T12:58:32.008Z,95656.44
2019-04-04T13:00:59.503Z,95651.70
2019-04-04T13:03:26.951Z,95644.33
2019-04-04T13:05:54.406Z,95644.92
2019-04-04T13:08:21.378Z,95642.78
2019-04-04T13:10:48.812Z,95632.36
2019-04-04T13:13:15.794Z,95636.42
2019-04-04T13:15:42.722Z,95641.55
2019-04-04T13:18:10.163Z,95638.83
2019-04-04T13:20:37.614Z,95647.05
2019-04-04T13:23:05.036Z,95644.66
2019-04-04T13:25:31.999Z,95647.50
2019-04-04T13:27:58.939Z,95640.02
2019-04-04T13:30:26.388Z,95646.18
2019-04-04T13:32:53.801Z,95649.52
2019-04-04T13:35:20.767Z,95640.29
2019-04-04T13:37:48.187Z,95646.75
2019-04-04T13:40:15.612Z,95646.39
2019-04-04T13:42:43.232Z,95640.78
2019-04-04T13:45:10.642Z,95642.95
2019-04-04T13:47:40.271Z,95641.90
2019-04-04T13:50:06.056Z,95633.30
2019-04-04T13:52:33.751Z,95634.88
2019-04-04T13:55:01.149Z,95634.22
2019-04-04T13:57:28.600Z,95634.72
2019-04-04T13:59:56.065Z,95629.20
2019-04-04T14:02:23.470Z,95635.16
2019-04-04T14:04:51.004Z,95644.66
2019-04-04T14:07:18.390Z,95643.44
2019-04-04T14:09:45.804Z,95637.84
2019-04-04T14:12:14.267Z,95642.35
2019-04-04T14:14:40.607Z,95645.09
2019-04-04T14:17:08.019Z,95639.23
2019-04-04T14:19:35.419Z,95644.91
2019-04-04T14:22:03.376Z,95646.78
2019-04-04T14:24:30.772Z,95650.31
2019-04-04T14:26:58.273Z,95641.34
2019-04-04T14:29:27.782Z,95658.97
2019-04-04T14:31:53.137Z,95664.91
2019-04-04T14:34:20.552Z,95671.17
2019-04-04T14:36:48.434Z,95682.05
2019-04-04T14:39:15.852Z,95690.20
2019-04-04T14:41:43.262Z,95690.12
2019-04-04T14:44:10.675Z,95695.16
2019-04-04T14:46:39.237Z,95687.33
2019-04-04T14:49:05.522Z,95694.06
2019-04-04T14:51:32.915Z,95689.91
2019-04-04T14:54:00.323Z,95682.68
2019-04-04T14:56:29.085Z,95684.28
2019-04-04T14:58:55.147Z,95686.84
2019-04-04T15:01:22.551Z,95678.77
2019-04-04T15:03:50.028Z,95689.78
2019-04-04T15:06:17.473Z,95692.06
2019-04-04T15:08:44.899Z,95692.67
2019-04-04T15:11:23.389Z,95699.53
2019-04-04T15:13:39.711Z,95709.81
2019-04-04T15:16:09.687Z,95715.45
2019-04-04T15:18:36.409Z,95699.41
2019-04-04T15:21:03.821Z,95700.00
2019-04-04T15:23:31.231Z,95699.06
2019-04-04T15:25:58.818Z,95698.58
2019-04-04T15:28:26.285Z,95700.65
2019-04-04T15:30:53.695Z,95709.41
2019-04-04T15:33:21.102Z,95714.59
2019-04-04T15:35:48.651Z,95716.58
2019-04-04T15:38:16.053Z,95715.59
2019-04-04T15:40:43.446Z,95707.86
2019-04-04T15:43:10.867Z,95720.89
2019-04-04T15:45:38.267Z,95717.37
2019-04-04T15:48:05.725Z,95714.88
2019-04-04T15:50:33.119Z,95722.89
2019-04-04T15:53:00.567Z,95725.80
2019-04-04T15:55:28.488Z,95737.43
2019-04-04T15:57:55.891Z,95738.20
2019-04-04T16:00:23.299Z,95732.04
2019-04-04T16:02:50.720Z,95734.63
2019-04-04T16:05:18.265Z,95730.61
2019-04-04T16:07:45.662Z,95731.06
2019-04-04T16:10:13.072Z,95732.13
2019-04-04T16:12:40.472Z,95728.09
2019-04-04T16:15:07.871Z,95729.28
2019-04-04T16:17:35.390Z,95732.34
2019-04-04T16:20:02.930Z,95732.86
2019-04-04T16:22:30.432Z,95728.97
2019-04-04T16:24:57.787Z,95737.07
2019-04-04T16:27:25.170Z,95734.31
2019-04-04T16:29:52.785Z,95741.50
2019-04-04T16:32:20.189Z,95746.11
2019-04-04T16:34:47.604Z,95758.13
2019-04-04T16:37:15.580Z,95757.97
2019-04-04T16:39:42.967Z,95766.69
2019-04-04T16:42:10.550Z,95774.26
2019-04-04T16:44:38.140Z,95775.09
2019-04-04T16:47:05.750Z,95776.55
2019-04-04T16:49:33.162Z,95780.94
2019-04-04T16:52:00.562Z,95781.91
2019-04-04T16:54:27.953Z,95784.55
2019-04-04T16:56:55.351Z,95786.31
2019-04-04T16:59:22.749Z,95786.73
2019-04-04T17:01:50.326Z,95783.03
2019-04-04T17:04:17.734Z,95776.64
2019-04-04T17:06:45.145Z,95780.90
2019-04-04T17:09:12.532Z,95775.59
2019-04-04T17:11:40.002Z,95780.71
2019-04-04T17:14:07.390Z,95775.69
2019-04-04T17:16:34.811Z,95780.53
2019-04-04T17:19:02.206Z,95783.38
2019-04-04T17:21:29.603Z,95790.08
2019-04-04T17:23:57.014Z,95791.16
2019-04-04T17:26:24.451Z,95790.11
2019-04-04T17:28:52.380Z,95781.62
2019-04-04T17:31:19.457Z,95777.47
2019-04-04T17:33:47.107Z,95781.03
2019-04-04T17:36:14.396Z,95793.46
2019-04-04T17:38:41.832Z,95797.62
2019-04-04T17:41:09.239Z,95796.80
2019-04-04T17:43:36.904Z,95803.72
2019-04-04T17:46:04.491Z,95804.09
2019-04-04T17:48:32.956Z,95811.21
2019-04-04T17:50:59.711Z,95804.83
2019-04-04T17:53:26.966Z,95799.27
2019-04-04T17:55:55.437Z,95807.84
2019-04-04T17:58:21.806Z,95809.36
2019-04-04T18:00:48.893Z,95812.73
2019-04-04T18:03:16.328Z,95810.51
2019-04-04T18:05:43.740Z,95808.28
2019-04-04T18:08:11.155Z,95804.84
2019-04-04T18:10:38.563Z,95815.46
2019-04-04T18:13:06.009Z,95823.77
2019-04-04T18:15:33.417Z,95823.27
2019-04-04T18:18:00.852Z,95823.98
2019-04-04T18:20:28.265Z,95825.95
2019-04-04T18:22:55.676Z,95831.05
2019-04-04T18:25:23.076Z,95831.03
2019-04-04T18:27:50.469Z,95840.97
2019-04-04T18:30:17.990Z,95835.80
2019-04-04T18:32:45.376Z,95839.41
2019-04-04T18:35:12.928Z,95834.75
2019-04-04T18:37:40.323Z,95830.44
2019-04-04T18:40:07.673Z,95837.91
2019-04-04T18:42:35.252Z,95848.14
2019-04-04T18:45:02.769Z,95843.73
2019-04-04T18:47:30.212Z,95848.76
2019-04-04T18:49:57.629Z,95848.28
2019-04-04T18:52:25.021Z,95856.80
2019-04-04T18:54:52.436Z,95850.36
2019-04-04T18:57:19.853Z,95851.45
2019-04-04T18:59:47.290Z,95846.66
2019-04-04T19:02:14.682Z,95852.13
2019-04-04T19:04:42.195Z,95851.89
2019-04-04T19:07:09.589Z,95852.09
2019-04-04T19:09:37.008Z,95849.29
2019-04-04T19:12:04.423Z,95860.58
2019-04-04T19:14:31.854Z,95864.83
2019-04-04T19:16:59.311Z,95870.85
2019-04-04T19:19:26.723Z,95868.84
2019-04-04T19:21:54.126Z,95869.87
2019-04-04T19:24:21.551Z,95876.69
2019-04-04T19:26:48.949Z,95887.33
2019-04-04T19:29:16.578Z,95890.47
2019-04-04T19:31:43.966Z,95888.48
2019-04-04T19:34:11.351Z,95896.82
2019-04-04T19:36:41.707Z,95901.63
2019-04-04T19:39:06.284Z,95900.63
2019-04-04T19:41:33.696Z,95902.48
2019-04-04T19:44:01.111Z,95899.30
2019-04-04T19:46:37.061Z,95899.87
2019-04-04T19:48:55.952Z,95900.50
2019-04-04T19:51:23.362Z,95902.41
2019-04-04T19:53:50.777Z,95901.51
2019-04-04T19:56:18.218Z,95891.52
2019-04-04T19:58:45.653Z,95896.77
2019-04-04T20:01:13.038Z,95887.33
2019-04-04T20:03:40.479Z,95883.33
2019-04-04T20:06:08.969Z,95885.23
2019-04-04T20:08:36.355Z,95884.48
2019-04-04T20:11:03.765Z,95883.17
2019-04-04T20:13:31.538Z,95887.36
2019-04-04T20:15:58.727Z,95897.05
2019-04-04T20:18:26.124Z,95899.30
2019-04-04T20:20:53.532Z,95902.78
2019-04-04T20:23:20.947Z,95903.84
2019-04-04T20:25:48.341Z,95909.63
2019-04-04T20:28:15.809Z,95909.88
2019-04-04T20:30:43.276Z,95914.14
2019-04-04T20:33:10.642Z,95913.70
2019-04-04T20:35:38.155Z,95913.08
2019-04-04T20:38:05.595Z,95907.20
2019-04-04T20:40:32.982Z,95907.82
2019-04-04T20:43:00.404Z,95909.97
2019-04-04T20:45:27.798Z,95911.81
2019-04-04T20:47:55.207Z,95918.50
2019-04-04T20:50:22.663Z,95917.41
2019-04-04T20:52:50.223Z,95917.59
2019-04-04T20:55:17.689Z,95917.95
2019-04-04T20:57:45.151Z,95921.06
2019-04-04T21:00:12.702Z,95932.11
2019-04-04T21:02:40.107Z,95929.91
2019-04-04T21:05:07.496Z,95933.45
2019-04-04T21:07:34.906Z,95931.23
2019-04-04T21:10:02.467Z,95930.42
2019-04-04T21:12:29.979Z,95928.43
2019-04-04T21:14:57.543Z,95919.83
2019-04-04T21:17:24.950Z,95916.45
2019-04-04T21:19:52.335Z,95916.78
2019-04-04T21:22:27.402Z,95912.58
2019-04-04T21:24:47.269Z,95915.78
2019-04-04T21:27:14.826Z,95911.47
2019-04-04T21:29:42.212Z,95914.69
2019-04-04T21:32:09.609Z,95916.75
2019-04-04T21:34:37.015Z,95918.81
2019-04-04T21:37:04.499Z,95913.27
2019-04-04T21:39:32.035Z,95922.03
2019-04-04T21:41:59.431Z,95921.53
2019-04-04T21:44:26.846Z,95923.59
2019-04-04T21:46:54.252Z,95916.13
2019-04-04T21:49:21.653Z,95911.31
2019-04-04T21:51:49.070Z,95915.18
2019-04-04T21:54:16.459Z,95918.58
2019-04-04T21:56:43.885Z,95922.69
2019-04-04T21:59:11.309Z,95925.27
2019-04-04T22:01:38.724Z,95927.34
2019-04-04T22:04:06.218Z,95920.25
2019-04-04T22:06:33.634Z,95928.57
2019-04-04T22:09:01.098Z,95926.55
2019-04-04T22:11:28.534Z,95937.80
2019-04-04T22:13:55.916Z,95929.27
2019-04-04T22:16:23.363Z,95926.64
2019-04-04T22:18:50.760Z,95934.84
2019-04-04T22:21:18.179Z,95935.73
2019-04-04T22:23:45.592Z,95941.23
2019-04-04T22:26:13.187Z,95935.19
2019-04-04T22:28:40.566Z,95939.25
2019-04-04T22:31:08.870Z,95939.36
2019-04-04T22:33:36.270Z,95933.02
2019-04-04T22:36:03.687Z,95934.88
2019-04-04T22:38:31.086Z,95937.66
2019-04-04T22:40:58.539Z,95943.94
2019-04-04T22:43:26.023Z,95942.98
2019-04-04T22:45:53.464Z,95948.61
2019-04-04T22:48:20.863Z,95944.31
2019-04-04T22:50:48.257Z,95943.12
2019-04-04T22:53:15.664Z,95934.50
2019-04-04T22:55:43.062Z,95931.44
2019-04-04T22:58:10.507Z,95941.77
2019-04-04T23:00:37.916Z,95935.92
2019-04-04T23:03:05.314Z,95938.08
2019-04-04T23:05:32.731Z,95929.72
2019-04-04T23:08:00.125Z,95927.53
2019-04-04T23:10:27.530Z,95925.83
2019-04-04T23:12:54.919Z,95924.07
2019-04-04T23:15:22.322Z,95931.76
2019-04-04T23:17:49.754Z,95922.13
2019-04-04T23:20:17.445Z,95928.57
2019-04-04T23:22:52.761Z,95923.97
2019-04-04T23:25:12.244Z,95924.59
2019-04-04T23:27:39.718Z,95922.90
2019-04-04T23:30:07.644Z,95919.95
2019-04-04T23:32:35.043Z,95921.23
2019-04-04T23:35:02.457Z,95918.73
2019-04-04T23:37:29.874Z,95922.57
2019-04-04T23:39:57.505Z,95924.70
2019-04-04T23:42:24.914Z,95932.88
2019-04-04T23:45:00.754Z,95934.31
2019-04-04T23:47:19.815Z,95927.57
2019-04-04T23:49:47.220Z,95940.80
2019-04-04T23:52:14.634Z,95936.83
2019-04-04T23:54:42.042Z,95938.61
2019-04-04T23:57:09.442Z,95938.36
2019-04-04T23:59:36.848Z,95945.27
